Lehmann Sound — V2EM3 — position and weather

sailwx.info

Track history (hours):
 
Tides and Currents Weather Stations Pressure Air Temp Water Temp Dewpoint Dewpoint Depression Visibility Wind Speed Wind Dir Waves Ship Positions

Lehmann Sound

Last reported at 2018-Apr-26 13:00 UTC. Time now 2018-Apr-26 13:06 UTC.
Position N 57°06' E 016°33'.

Length 90 m; draft 5.8 m.

Type: Cargo ship. MMSI: 305476000.

Date/timePositionNaut miles runAvg speedWind from/ knotsBaromVisibWave heightAir tempDewpointWater temp
2018-Apr-26 13:00N 57°06' E 016°33'0 0.0
2018-Apr-26 12:27N 57°06' E 016°33'0 0.0
2018-Apr-26 11:57N 57°06' E 016°33'0 0.0
2018-Apr-26 11:30N 57°06' E 016°33'0 0.0
2018-Apr-26 11:00N 57°06' E 016°33'0 0.0
2018-Apr-26 10:30N 57°06' E 016°33'0 0.0
2018-Apr-26 10:00N 57°06' E 016°33'0 0.0
2018-Apr-26 09:30N 57°06' E 016°33'0 0.0
2018-Apr-26 09:00N 57°06' E 016°33'0 0.0
2018-Apr-26 08:24N 57°06' E 016°33'0 0.0
2018-Apr-26 08:00N 57°06' E 016°33'0 0.0
2018-Apr-26 07:30N 57°06' E 016°33'0 0.0
2018-Apr-26 07:00N 57°06' E 016°33'1 2.7
2018-Apr-26 06:31N 57°07' E 016°33'3 5.6
2018-Apr-26 06:01N 57°10' E 016°36'3 6.0
2018-Apr-26 05:30N 57°12' E 016°39'3 6.0
2018-Apr-26 05:00N 57°14' E 016°43'  
2018-Apr-20 19:35N 57°17' E 016°46'110.3
2018-Apr-20 19:31N 57°16' E 016°45'510.4
2018-Apr-20 19:01N 57°12' E 016°39'510.3
2018-Apr-20 18:31N 57°08' E 016°34'2 4.3
2018-Apr-20 17:59N 57°06' E 016°33'0 0.0
2018-Apr-20 17:29N 57°06' E 016°33'0 0.0
2018-Apr-20 16:59N 57°06' E 016°33'0 0.0
2018-Apr-20 16:29N 57°06' E 016°33'0 0.0
2018-Apr-20 15:56N 57°06' E 016°33'0 0.0
2018-Apr-20 15:29N 57°06' E 016°33'0 0.0
2018-Apr-20 14:56N 57°06' E 016°33'0 0.0
2018-Apr-20 14:26N 57°06' E 016°33'0 0.0
2018-Apr-20 13:56N 57°06' E 016°33'0 0.0
2018-Apr-20 13:29N 57°06' E 016°33'0 0.0
2018-Apr-20 12:59N 57°06' E 016°33'0 0.0
2018-Apr-20 12:29N 57°06' E 016°33'0 0.0
2018-Apr-20 11:59N 57°06' E 016°33'0 0.0
2018-Apr-20 11:29N 57°06' E 016°33'0 0.0
2018-Apr-20 10:59N 57°06' E 016°33'0 0.0
2018-Apr-20 10:29N 57°06' E 016°33'0 0.0
2018-Apr-20 09:59N 57°06' E 016°33'0 0.0
2018-Apr-20 09:26N 57°06' E 016°33'0 0.0
2018-Apr-20 08:59N 57°06' E 016°33'0 0.0
2018-Apr-20 08:29N 57°06' E 016°33'0 0.0
2018-Apr-20 07:59N 57°06' E 016°33'0 0.0
2018-Apr-20 07:26N 57°06' E 016°33'0 0.0
2018-Apr-20 06:59N 57°06' E 016°33'0 0.0
2018-Apr-20 06:29N 57°06' E 016°33'0 0.0
2018-Apr-20 05:59N 57°06' E 016°33'0 0.0
2018-Apr-20 05:26N 57°06' E 016°33'0 0.0
2018-Apr-20 04:59N 57°06' E 016°33'0 0.0
2018-Apr-20 04:29N 57°06' E 016°33'0 0.2
2018-Apr-20 04:00N 57°06' E 016°33'2 3.9
2018-Apr-20 03:29N 57°08' E 016°33'5 9.6
2018-Apr-20 03:00N 57°12' E 016°39'5 9.7
2018-Apr-20 02:30N 57°15' E 016°44'12 9.7
2018-Apr-20 01:16N 57°25' E 016°58'3 9.7
2018-Apr-20 00:58N 57°27' E 017°02'26 8.3
2018-Apr-19 21:52N 57°10' E 017°37'  
2018-Apr-17 17:06N 55°50' E 016°57'110.2
2018-Apr-17 17:00N 55°50' E 016°55'510.3
2018-Apr-17 16:30N 55°49' E 016°46'510.2
2018-Apr-17 16:00N 55°49' E 016°37'510.3
2018-Apr-17 15:30N 55°48' E 016°28'510.4
2018-Apr-17 15:00N 55°47' E 016°19'510.4
2018-Apr-17 14:30N 55°47' E 016°09'510.2
2018-Apr-17 14:00N 55°46' E 016°00'510.2
2018-Apr-17 13:30N 55°45' E 015°52'510.3
2018-Apr-17 13:00N 55°45' E 015°42'5 9.8
2018-Apr-17 12:30N 55°42' E 015°35'510.1
2018-Apr-17 12:00N 55°38' E 015°29'510.1
2018-Apr-17 11:30N 55°35' E 015°23'510.1
2018-Apr-17 11:00N 55°31' E 015°17'4 8.6
2018-Apr-17 10:30N 55°28' E 015°11'4 7.7
2018-Apr-17 10:00N 55°27' E 015°04'5 9.7
2018-Apr-17 09:30N 55°26' E 014°56'5 9.9
2018-Apr-17 09:00N 55°25' E 014°47'510.1
2018-Apr-17 08:30N 55°23' E 014°39'510.2
2018-Apr-17 08:00N 55°19' E 014°33'510.3
2018-Apr-17 07:30N 55°15' E 014°28'510.2
2018-Apr-17 07:00N 55°11' E 014°23'510.2
2018-Apr-17 06:30N 55°07' E 014°17'610.1
2018-Apr-17 05:53N 55°02' E 014°11'4 9.7
2018-Apr-17 05:30N 54°60' E 014°05'4810.1
2018-Apr-17 00:42N 54°42' E 012°47'1310.2
2018-Apr-16 23:28N 54°35' E 012°29'510.2
2018-Apr-16 23:00N 54°33' E 012°22'5 9.8
2018-Apr-16 22:30N 54°29' E 012°16'510.2
2018-Apr-16 21:58N 54°25' E 012°11'4 9.6
2018-Apr-16 21:30N 54°24' E 012°03'8 9.5
2018-Apr-16 20:40N 54°21' E 011°51'2 9.7
2018-Apr-16 20:30N 54°20' E 011°48'5 9.9
2018-Apr-16 20:00N 54°18' E 011°41'510.2
2018-Apr-16 19:30N 54°15' E 011°33'5 9.9
2018-Apr-16 19:00N 54°12' E 011°26'  
Track history (hours):
 
Tides and Currents Weather Stations Pressure Air Temp Water Temp Dewpoint Dewpoint Depression Visibility Wind Speed Wind Dir Waves Ship Positions

Lehmann Sound

Last reported at 2018-Apr-26 13:00 UTC. Time now 2018-Apr-26 13:06 UTC.
Position N 57°06' E 016°33'.

Length 90 m; draft 5.8 m.

Type: Cargo ship. MMSI: 305476000.

Date/timePositionNaut miles runAvg speedWind from/ knotsBaromVisibWave heightAir tempDewpointWater temp
2018-Apr-26 13:00N 57°06' E 016°33'0 0.0
2018-Apr-26 12:27N 57°06' E 016°33'0 0.0
2018-Apr-26 11:57N 57°06' E 016°33'0 0.0
2018-Apr-26 11:30N 57°06' E 016°33'0 0.0
2018-Apr-26 11:00N 57°06' E 016°33'0 0.0
2018-Apr-26 10:30N 57°06' E 016°33'0 0.0
2018-Apr-26 10:00N 57°06' E 016°33'0 0.0
2018-Apr-26 09:30N 57°06' E 016°33'0 0.0
2018-Apr-26 09:00N 57°06' E 016°33'0 0.0
2018-Apr-26 08:24N 57°06' E 016°33'0 0.0
2018-Apr-26 08:00N 57°06' E 016°33'0 0.0
2018-Apr-26 07:30N 57°06' E 016°33'0 0.0
2018-Apr-26 07:00N 57°06' E 016°33'1 2.7
2018-Apr-26 06:31N 57°07' E 016°33'3 5.6
2018-Apr-26 06:01N 57°10' E 016°36'3 6.0
2018-Apr-26 05:30N 57°12' E 016°39'3 6.0
2018-Apr-26 05:00N 57°14' E 016°43'  
2018-Apr-20 19:35N 57°17' E 016°46'110.3
2018-Apr-20 19:31N 57°16' E 016°45'510.4
2018-Apr-20 19:01N 57°12' E 016°39'510.3
2018-Apr-20 18:31N 57°08' E 016°34'2 4.3
2018-Apr-20 17:59N 57°06' E 016°33'0 0.0
2018-Apr-20 17:29N 57°06' E 016°33'0 0.0
2018-Apr-20 16:59N 57°06' E 016°33'0 0.0
2018-Apr-20 16:29N 57°06' E 016°33'0 0.0
2018-Apr-20 15:56N 57°06' E 016°33'0 0.0
2018-Apr-20 15:29N 57°06' E 016°33'0 0.0
2018-Apr-20 14:56N 57°06' E 016°33'0 0.0
2018-Apr-20 14:26N 57°06' E 016°33'0 0.0
2018-Apr-20 13:56N 57°06' E 016°33'0 0.0
2018-Apr-20 13:29N 57°06' E 016°33'0 0.0
2018-Apr-20 12:59N 57°06' E 016°33'0 0.0
2018-Apr-20 12:29N 57°06' E 016°33'0 0.0
2018-Apr-20 11:59N 57°06' E 016°33'0 0.0
2018-Apr-20 11:29N 57°06' E 016°33'0 0.0
2018-Apr-20 10:59N 57°06' E 016°33'0 0.0
2018-Apr-20 10:29N 57°06' E 016°33'0 0.0
2018-Apr-20 09:59N 57°06' E 016°33'0 0.0
2018-Apr-20 09:26N 57°06' E 016°33'0 0.0
2018-Apr-20 08:59N 57°06' E 016°33'0 0.0
2018-Apr-20 08:29N 57°06' E 016°33'0 0.0
2018-Apr-20 07:59N 57°06' E 016°33'0 0.0
2018-Apr-20 07:26N 57°06' E 016°33'0 0.0
2018-Apr-20 06:59N 57°06' E 016°33'0 0.0
2018-Apr-20 06:29N 57°06' E 016°33'0 0.0
2018-Apr-20 05:59N 57°06' E 016°33'0 0.0
2018-Apr-20 05:26N 57°06' E 016°33'0 0.0
2018-Apr-20 04:59N 57°06' E 016°33'0 0.0
2018-Apr-20 04:29N 57°06' E 016°33'0 0.2
2018-Apr-20 04:00N 57°06' E 016°33'2 3.9
2018-Apr-20 03:29N 57°08' E 016°33'5 9.6
2018-Apr-20 03:00N 57°12' E 016°39'5 9.7
2018-Apr-20 02:30N 57°15' E 016°44'12 9.7
2018-Apr-20 01:16N 57°25' E 016°58'3 9.7
2018-Apr-20 00:58N 57°27' E 017°02'26 8.3
2018-Apr-19 21:52N 57°10' E 017°37'  
2018-Apr-17 17:06N 55°50' E 016°57'110.2
2018-Apr-17 17:00N 55°50' E 016°55'510.3
2018-Apr-17 16:30N 55°49' E 016°46'510.2
2018-Apr-17 16:00N 55°49' E 016°37'510.3
2018-Apr-17 15:30N 55°48' E 016°28'510.4
2018-Apr-17 15:00N 55°47' E 016°19'510.4
2018-Apr-17 14:30N 55°47' E 016°09'510.2
2018-Apr-17 14:00N 55°46' E 016°00'510.2
2018-Apr-17 13:30N 55°45' E 015°52'510.3
2018-Apr-17 13:00N 55°45' E 015°42'5 9.8
2018-Apr-17 12:30N 55°42' E 015°35'510.1
2018-Apr-17 12:00N 55°38' E 015°29'510.1
2018-Apr-17 11:30N 55°35' E 015°23'510.1
2018-Apr-17 11:00N 55°31' E 015°17'4 8.6
2018-Apr-17 10:30N 55°28' E 015°11'4 7.7
2018-Apr-17 10:00N 55°27' E 015°04'5 9.7
2018-Apr-17 09:30N 55°26' E 014°56'5 9.9
2018-Apr-17 09:00N 55°25' E 014°47'510.1
2018-Apr-17 08:30N 55°23' E 014°39'510.2
2018-Apr-17 08:00N 55°19' E 014°33'510.3
2018-Apr-17 07:30N 55°15' E 014°28'510.2
2018-Apr-17 07:00N 55°11' E 014°23'510.2
2018-Apr-17 06:30N 55°07' E 014°17'610.1
2018-Apr-17 05:53N 55°02' E 014°11'4 9.7
2018-Apr-17 05:30N 54°60' E 014°05'4810.1
2018-Apr-17 00:42N 54°42' E 012°47'1310.2
2018-Apr-16 23:28N 54°35' E 012°29'510.2
2018-Apr-16 23:00N 54°33' E 012°22'5 9.8
2018-Apr-16 22:30N 54°29' E 012°16'510.2
2018-Apr-16 21:58N 54°25' E 012°11'4 9.6
2018-Apr-16 21:30N 54°24' E 012°03'8 9.5
2018-Apr-16 20:40N 54°21' E 011°51'2 9.7
2018-Apr-16 20:30N 54°20' E 011°48'5 9.9
2018-Apr-16 20:00N 54°18' E 011°41'510.2
2018-Apr-16 19:30N 54°15' E 011°33'5 9.9
2018-Apr-16 19:00N 54°12' E 011°26'  

Dump ship's entire track history